createdAt,value
2023-03-14T00:00:52.135Z,95671.03
2023-03-14T00:02:56.231Z,95678.03
2023-03-14T00:05:00.248Z,95670.22
2023-03-14T00:07:04.176Z,95686.69
2023-03-14T00:09:08.128Z,95689.28
2023-03-14T00:11:13.153Z,95689.28
2023-03-14T00:13:17.255Z,95676.25
2023-03-14T00:15:22.787Z,95678.84
2023-03-14T00:17:26.734Z,95657.97
2023-03-14T00:19:30.617Z,95651.13
2023-03-14T00:21:34.569Z,95645.91
2023-03-14T00:23:39.689Z,95641.69
2023-03-14T00:25:43.660Z,95624.41
2023-03-14T00:27:47.561Z,95616.56
2023-03-14T00:29:51.975Z,95610.38
2023-03-14T00:31:57.156Z,95627.00
2023-03-14T00:34:01.285Z,95638.06
2023-03-14T00:36:06.954Z,95648.50
2023-03-14T00:38:10.909Z,95650.50
2023-03-14T00:40:15.626Z,95661.94
2023-03-14T00:42:19.619Z,95659.97
2023-03-14T00:44:24.092Z,95655.72
2023-03-14T00:46:28.130Z,95656.56
2023-03-14T00:48:33.664Z,95652.31
2023-03-14T00:50:38.509Z,95653.13
2023-03-14T00:52:42.381Z,95667.16
2023-03-14T00:54:46.944Z,95682.81
2023-03-14T00:56:50.902Z,95693.28
2023-03-14T00:58:56.734Z,95685.63
2023-03-14T01:01:00.651Z,95695.88
2023-03-14T01:03:05.280Z,95690.66
2023-03-14T01:05:11.590Z,95688.06
2023-03-14T01:07:15.593Z,95688.84
2023-03-14T01:09:19.726Z,95695.88
2023-03-14T01:11:27.010Z,95696.69
2023-03-14T01:13:31.039Z,95681.19
2023-03-14T01:15:35.162Z,95684.44
2023-03-14T01:17:40.416Z,95680.41
2023-03-14T01:19:44.405Z,95668.16
2023-03-14T01:21:49.700Z,95659.53
2023-03-14T01:23:54.131Z,95649.28
2023-03-14T01:25:57.995Z,95637.66
2023-03-14T01:28:02.310Z,95631.63
2023-03-14T01:30:09.575Z,95629.00
2023-03-14T01:32:13.609Z,95626.41
2023-03-14T01:34:18.034Z,95633.44
2023-03-14T01:36:23.858Z,95625.78
2023-03-14T01:38:29.724Z,95638.84
2023-03-14T01:40:34.397Z,95634.44
2023-03-14T01:42:38.378Z,95637.06
2023-03-14T01:44:53.390Z,95632.63
2023-03-14T01:46:57.774Z,95628.22
2023-03-14T01:49:21.673Z,95617.97
2023-03-14T01:51:38.083Z,95621.19
2023-03-14T01:53:43.656Z,95631.00
2023-03-14T01:55:47.451Z,95621.41
2023-03-14T01:57:53.170Z,95627.41
2023-03-14T02:00:00.011Z,95627.41
2023-03-14T02:02:04.355Z,95619.59
2023-03-14T02:04:09.795Z,95616.19
2023-03-14T02:06:14.157Z,95601.31
2023-03-14T02:08:21.074Z,95600.53
2023-03-14T02:10:33.975Z,95590.69
2023-03-14T02:12:39.168Z,95584.84
2023-03-14T02:14:50.676Z,95579.66
2023-03-14T02:17:10.616Z,95582.03
2023-03-14T02:20:13.377Z,95586.63
2023-03-14T02:22:20.043Z,95574.41
2023-03-14T02:24:35.093Z,95570.19
2023-03-14T02:29:18.776Z,95554.34
2023-03-14T02:31:23.454Z,95549.75
2023-03-14T02:33:27.325Z,95539.66
2023-03-14T02:35:35.969Z,95532.66
2023-03-14T02:37:43.501Z,95536.25
2023-03-14T02:39:50.023Z,95521.63
2023-03-14T02:41:54.105Z,95524.84
2023-03-14T02:43:57.978Z,95517.19
2023-03-14T02:46:04.235Z,95521.22
2023-03-14T02:48:11.280Z,95525.63
2023-03-14T02:50:20.151Z,95518.59
2023-03-14T02:52:24.007Z,95511.78
2023-03-14T02:54:28.016Z,95505.38
2023-03-14T02:56:31.856Z,95496.94
2023-03-14T02:58:36.701Z,95490.91
2023-03-14T03:00:49.540Z,95496.94
2023-03-14T03:02:55.998Z,95505.75
2023-03-14T03:04:59.941Z,95502.16
2023-03-14T03:07:03.805Z,95497.13
2023-03-14T03:09:07.885Z,95483.88
2023-03-14T03:11:12.829Z,95484.88
2023-03-14T03:13:16.712Z,95484.06
2023-03-14T03:15:22.264Z,95490.09
2023-03-14T03:17:26.256Z,95484.69
2023-03-14T03:19:31.674Z,95484.06
2023-03-14T03:21:35.809Z,95491.72
2023-03-14T03:23:39.612Z,95478.66
2023-03-14T03:25:43.801Z,95483.09
2023-03-14T03:27:47.668Z,95474.25
2023-03-14T03:29:54.841Z,95472.44
2023-03-14T03:31:58.664Z,95463.00
2023-03-14T03:34:02.676Z,95460.22
2023-03-14T03:36:10.298Z,95464.81
2023-03-14T03:38:16.932Z,95469.03
2023-03-14T03:40:22.304Z,95459.41
2023-03-14T03:42:26.374Z,95454.16
2023-03-14T03:44:30.223Z,95440.31
2023-03-14T03:46:34.189Z,95441.13
2023-03-14T03:48:38.058Z,95437.53
2023-03-14T03:50:47.127Z,95438.50
2023-03-14T03:52:54.571Z,95442.13
2023-03-14T03:54:58.539Z,95433.28
2023-03-14T03:57:02.733Z,95438.72
2023-03-14T03:59:06.549Z,95439.53
2023-03-14T04:01:10.553Z,95441.34
2023-03-14T04:03:14.782Z,95444.75
2023-03-14T04:05:18.919Z,95434.31
2023-03-14T04:07:28.794Z,95431.69
2023-03-14T04:09:34.029Z,95428.91
2023-03-14T04:12:07.358Z,95427.28
2023-03-14T04:14:30.851Z,95423.88
2023-03-14T04:16:54.578Z,95426.66
2023-03-14T04:18:58.411Z,95422.06
2023-03-14T04:21:03.318Z,95416.03
2023-03-14T04:23:20.003Z,95421.25
2023-03-14T04:25:27.741Z,95414.22
2023-03-14T04:27:34.761Z,95404.59
2023-03-14T04:29:39.726Z,95399.59
2023-03-14T04:31:43.782Z,95392.38
2023-03-14T04:33:47.870Z,95383.94
2023-03-14T04:35:56.086Z,95372.66
2023-03-14T04:38:00.113Z,95381.94
2023-03-14T04:40:07.154Z,95376.91
2023-03-14T04:42:12.968Z,95376.91
2023-03-14T04:44:16.827Z,95375.88
2023-03-14T04:46:21.126Z,95370.88
2023-03-14T04:48:25.679Z,95360.47
2023-03-14T04:50:29.725Z,95362.84
2023-03-14T04:52:33.736Z,95358.63
2023-03-14T04:54:38.689Z,95360.03
2023-03-14T04:56:42.520Z,95348.81
2023-03-14T04:58:47.733Z,95348.81
2023-03-14T05:00:54.196Z,95347.78
2023-03-14T05:03:17.271Z,95347.78
2023-03-14T05:05:30.089Z,95353.84
2023-03-14T05:07:48.804Z,95347.19
2023-03-14T05:10:05.286Z,95350.41
2023-03-14T05:12:44.587Z,95350.41
2023-03-14T05:15:21.833Z,95343.59
2023-03-14T05:17:44.417Z,95339.97
2023-03-14T05:20:13.552Z,95336.56
2023-03-14T05:22:52.382Z,95333.16
2023-03-14T05:25:07.754Z,95307.84
2023-03-14T05:27:29.921Z,95302.63
2023-03-14T05:29:57.996Z,95295.59
2023-03-14T05:32:21.614Z,95290.38
2023-03-14T05:34:50.703Z,95289.59
2023-03-14T05:37:11.589Z,95283.16
2023-03-14T05:39:40.842Z,95294.22
2023-03-14T05:41:59.235Z,95282.19
2023-03-14T05:44:20.689Z,95265.72
2023-03-14T05:46:33.350Z,95269.31
2023-03-14T05:49:05.005Z,95257.69
2023-03-14T05:51:23.557Z,95248.25
2023-03-14T05:53:45.806Z,95243.03
2023-03-14T05:56:09.966Z,95238.63
2023-03-14T05:58:28.265Z,95239.22
2023-03-14T06:00:48.036Z,95253.28
2023-03-14T06:03:06.733Z,95252.47
2023-03-14T06:05:15.366Z,95241.81
2023-03-14T06:07:19.154Z,95241.81
2023-03-14T06:09:24.249Z,95231.38
2023-03-14T06:11:30.333Z,95234.78
2023-03-14T06:13:34.525Z,95244.25
2023-03-14T06:15:38.357Z,95242.44
2023-03-14T06:17:42.267Z,95244.03
2023-03-14T06:19:48.905Z,95244.84
2023-03-14T06:21:54.108Z,95245.66
2023-03-14T06:23:58.135Z,95250.88
2023-03-14T06:26:04.495Z,95245.66
2023-03-14T06:28:08.400Z,95237.63
2023-03-14T06:30:13.694Z,95240.84
2023-03-14T06:32:17.561Z,95245.84
2023-03-14T06:34:21.818Z,95250.88
2023-03-14T06:36:25.743Z,95250.06
2023-03-14T06:38:30.897Z,95249.88
2023-03-14T06:40:35.793Z,95254.25
2023-03-14T06:42:44.556Z,95250.06
2023-03-14T06:44:49.158Z,95250.66
2023-03-14T06:46:53.040Z,95240.03
2023-03-14T06:48:57.115Z,95246.84
2023-03-14T06:51:01.171Z,95242.41
2023-03-14T06:53:05.762Z,95251.47
2023-03-14T06:55:12.709Z,95251.88
2023-03-14T06:57:16.615Z,95243.81
2023-03-14T06:59:20.443Z,95241.22
2023-03-14T07:01:27.563Z,95251.66
2023-03-14T07:03:34.695Z,95254.88
2023-03-14T07:05:41.325Z,95270.53
2023-03-14T07:07:45.451Z,95271.13
2023-03-14T07:09:49.426Z,95275.56
2023-03-14T07:11:54.802Z,95272.94
2023-03-14T07:14:00.382Z,95285.00
2023-03-14T07:16:04.435Z,95286.00
2023-03-14T07:18:08.370Z,95286.00
2023-03-14T07:20:13.180Z,95282.59
2023-03-14T07:22:17.284Z,95285.19
2023-03-14T07:24:21.261Z,95295.44
2023-03-14T07:26:25.107Z,95316.34
2023-03-14T07:28:31.706Z,95304.09
2023-03-14T07:30:49.348Z,95317.13
2023-03-14T07:33:02.778Z,95317.94
2023-03-14T07:35:08.717Z,95320.72
2023-03-14T07:37:15.185Z,95302.47
2023-03-14T07:39:19.005Z,95292.25
2023-03-14T07:41:23.908Z,95323.94
2023-03-14T07:43:47.580Z,95312.28
2023-03-14T07:45:58.641Z,95321.22
2023-03-14T07:48:03.038Z,95337.44
2023-03-14T07:50:07.833Z,95310.47
2023-03-14T07:52:11.836Z,95310.88
2023-03-14T07:54:15.678Z,95331.59
2023-03-14T07:56:19.600Z,95341.22
2023-03-14T07:58:23.837Z,95346.69
2023-03-14T08:00:29.471Z,95347.66
2023-03-14T08:02:33.422Z,95340.25
2023-03-14T08:04:37.670Z,95343.25
2023-03-14T08:06:41.587Z,95354.91
2023-03-14T08:08:45.584Z,95351.50
2023-03-14T08:10:49.718Z,95375.59
2023-03-14T08:12:55.933Z,95365.16
2023-03-14T08:15:00.468Z,95359.94
2023-03-14T08:17:09.246Z,95379.81
2023-03-14T08:19:13.159Z,95374.56
2023-03-14T08:21:17.040Z,95385.81
2023-03-14T08:23:20.876Z,95375.78
2023-03-14T08:25:24.698Z,95374.56
2023-03-14T08:27:28.727Z,95389.25
2023-03-14T08:29:32.717Z,95375.19
2023-03-14T08:31:36.993Z,95384.84
2023-03-14T08:33:42.586Z,95385.03
2023-03-14T08:35:46.743Z,95391.88
2023-03-14T08:37:50.925Z,95377.19
2023-03-14T08:39:54.882Z,95397.28
2023-03-14T08:41:58.843Z,95391.25
2023-03-14T08:44:02.771Z,95396.47
2023-03-14T08:46:07.445Z,95395.47
2023-03-14T08:48:11.407Z,95393.03
2023-03-14T08:50:16.951Z,95401.28
2023-03-14T08:52:20.947Z,95409.94
2023-03-14T08:54:25.012Z,95418.78
2023-03-14T08:56:28.913Z,95424.78
2023-03-14T08:58:32.707Z,95422.59
2023-03-14T09:00:36.583Z,95417.16
2023-03-14T09:02:40.522Z,95431.22
2023-03-14T09:04:44.339Z,95438.28
2023-03-14T09:06:49.531Z,95429.41
2023-03-14T09:08:53.335Z,95430.22
2023-03-14T09:10:57.198Z,95432.81
2023-03-14T09:13:01.140Z,95429.84
2023-03-14T09:15:05.845Z,95427.81
2023-03-14T09:17:09.705Z,95438.47
2023-03-14T09:19:13.541Z,95437.84
2023-03-14T09:21:17.500Z,95437.25
2023-03-14T09:23:22.673Z,95433.84
2023-03-14T09:25:26.520Z,95435.25
2023-03-14T09:27:30.336Z,95440.09
2023-03-14T09:29:34.159Z,95453.16
2023-03-14T09:31:38.010Z,95454.13
2023-03-14T09:33:41.881Z,95454.13
2023-03-14T09:35:45.773Z,95461.16
2023-03-14T09:37:50.232Z,95472.41
2023-03-14T09:39:55.509Z,95459.75
2023-03-14T09:41:59.381Z,95485.47
2023-03-14T09:44:06.133Z,95476.03
2023-03-14T09:46:10.239Z,95493.31
2023-03-14T09:48:17.629Z,95470.81
2023-03-14T09:50:21.793Z,95492.69
2023-03-14T09:52:28.520Z,95496.94
2023-03-14T09:54:35.259Z,95508.34
2023-03-14T09:56:40.544Z,95506.53
2023-03-14T09:58:46.268Z,95504.75
2023-03-14T10:00:51.091Z,95508.97
2023-03-14T10:02:57.813Z,95513.59
2023-03-14T10:05:06.646Z,95509.16
2023-03-14T10:07:12.189Z,95514.19
2023-03-14T10:09:25.894Z,95519.41
2023-03-14T10:11:29.707Z,95532.47
2023-03-14T10:13:35.011Z,95530.25
2023-03-14T10:15:40.095Z,95510.38
2023-03-14T10:17:45.877Z,95522.81
2023-03-14T10:19:57.734Z,95521.84
2023-03-14T10:22:03.686Z,95503.53
2023-03-14T10:24:22.087Z,95524.81
2023-03-14T10:26:28.560Z,95543.09
2023-03-14T10:28:35.365Z,95530.03
2023-03-14T10:30:46.339Z,95523.59
2023-03-14T10:32:50.426Z,95531.66
2023-03-14T10:35:22.003Z,95542.28
2023-03-14T10:37:28.362Z,95551.72
2023-03-14T10:39:44.809Z,95550.91
2023-03-14T10:41:49.404Z,95562.38
2023-03-14T10:43:55.883Z,95557.16
2023-03-14T10:46:00.776Z,95565.78
2023-03-14T10:48:24.391Z,95597.31
2023-03-14T10:50:29.887Z,95591.09
2023-03-14T10:52:57.308Z,95595.50
2023-03-14T10:55:00.678Z,95612.59
2023-03-14T10:57:06.768Z,95607.97
2023-03-14T10:59:15.257Z,95625.22
2023-03-14T11:01:38.107Z,95645.69
2023-03-14T11:03:43.860Z,95630.28
2023-03-14T11:05:50.943Z,95644.91
2023-03-14T11:07:55.038Z,95650.16
2023-03-14T11:10:01.049Z,95664.22
2023-03-14T11:12:19.716Z,95650.94
2023-03-14T11:14:30.949Z,95655.63
2023-03-14T11:16:40.869Z,95661.44
2023-03-14T11:19:05.866Z,95672.72
2023-03-14T11:21:13.426Z,95669.94
2023-03-14T11:23:19.925Z,95678.16
2023-03-14T11:25:28.422Z,95679.00
2023-03-14T11:27:38.829Z,95686.84
2023-03-14T11:29:47.793Z,95686.22
2023-03-14T11:31:51.678Z,95694.06
2023-03-14T11:33:59.119Z,95700.06
2023-03-14T11:36:06.673Z,95699.28
2023-03-14T11:38:22.046Z,95714.94
2023-03-14T11:40:27.242Z,95714.94
2023-03-14T11:42:31.090Z,95716.72
2023-03-14T11:44:36.719Z,95720.97
2023-03-14T11:46:44.299Z,95723.94
2023-03-14T11:48:55.719Z,95728.56
2023-03-14T11:51:00.141Z,95733.78
2023-03-14T11:53:07.147Z,95736.22
2023-03-14T11:55:14.947Z,95740.81
2023-03-14T11:57:19.806Z,95745.25
2023-03-14T11:59:26.883Z,95746.22
2023-03-14T12:01:39.547Z,95765.53
2023-03-14T12:03:47.551Z,95784.81
2023-03-14T12:06:03.804Z,95799.66
2023-03-14T12:08:29.352Z,95806.69
2023-03-14T12:10:38.039Z,95821.75
2023-03-14T12:12:41.887Z,95812.31
2023-03-14T12:14:56.673Z,95819.94
2023-03-14T12:17:01.270Z,95819.75
2023-03-14T12:19:36.845Z,95828.19
2023-03-14T12:21:49.415Z,95842.84
2023-03-14T12:23:55.095Z,95835.84
2023-03-14T12:26:16.747Z,95851.72
2023-03-14T12:28:22.142Z,95850.09
2023-03-14T12:30:30.365Z,95857.94
2023-03-14T12:32:34.366Z,95864.94
2023-03-14T12:34:43.501Z,95862.53
2023-03-14T12:37:31.723Z,95867.94
2023-03-14T12:39:45.380Z,95877.59
2023-03-14T12:41:53.683Z,95882.44
2023-03-14T12:43:57.575Z,95874.78
2023-03-14T12:46:22.228Z,95880.22
2023-03-14T12:48:26.184Z,95872.38
2023-03-14T12:50:36.400Z,95876.75
2023-03-14T12:52:47.318Z,95884.59
2023-03-14T12:54:52.204Z,95888.03
2023-03-14T12:57:22.832Z,95887.81
2023-03-14T12:59:34.685Z,95898.66
2023-03-14T13:01:39.568Z,95906.50
2023-03-14T13:03:47.206Z,95908.09
2023-03-14T13:05:56.259Z,95916.75
2023-03-14T13:08:08.400Z,95921.16
2023-03-14T13:10:22.711Z,95922.97
2023-03-14T13:12:33.095Z,95916.16
2023-03-14T13:14:36.915Z,95922.34
2023-03-14T13:16:40.835Z,95927.38
2023-03-14T13:18:45.451Z,95924.78
2023-03-14T13:20:53.558Z,95928.19
2023-03-14T13:22:58.753Z,95933.41
2023-03-14T13:25:03.795Z,95939.81
2023-03-14T13:27:10.459Z,95951.69
2023-03-14T13:29:18.454Z,95944.03
2023-03-14T13:31:25.430Z,95948.28
2023-03-14T13:33:29.403Z,95952.06
2023-03-14T13:35:43.317Z,95965.13
2023-03-14T13:37:48.658Z,95960.88
2023-03-14T13:39:57.268Z,95960.72
2023-03-14T13:42:02.549Z,95975.59
2023-03-14T13:44:08.730Z,95989.78
2023-03-14T13:46:15.805Z,95975.59
2023-03-14T13:48:19.763Z,95963.50
2023-03-14T13:50:23.680Z,95987.00
2023-03-14T13:52:31.404Z,95990.25
2023-03-14T13:54:35.552Z,95978.19
2023-03-14T13:56:41.855Z,95990.25
2023-03-14T13:58:45.758Z,95986.66
2023-03-14T14:00:58.191Z,95988.88
2023-03-14T14:03:02.084Z,95994.28
2023-03-14T14:05:06.762Z,95995.47
2023-03-14T14:07:13.300Z,95993.66
2023-03-14T14:09:20.759Z,96000.88
2023-03-14T14:11:44.738Z,95992.22
2023-03-14T14:13:51.428Z,96000.06
2023-03-14T14:15:55.437Z,95993.03
2023-03-14T14:18:01.020Z,95996.66
2023-03-14T14:20:06.786Z,95988.00
2023-03-14T14:22:11.245Z,95999.25
2023-03-14T14:24:15.400Z,95989.78
2023-03-14T14:26:21.243Z,95992.22
2023-03-14T14:28:28.879Z,95996.81
2023-03-14T14:30:35.312Z,95989.78
2023-03-14T14:32:39.763Z,95995.84
2023-03-14T14:34:50.423Z,95989.00
2023-03-14T14:36:54.407Z,95997.84
2023-03-14T14:39:01.381Z,95994.59
2023-03-14T14:41:05.479Z,96002.25
2023-03-14T14:43:12.509Z,95984.16
2023-03-14T14:45:19.508Z,95997.03
2023-03-14T14:47:26.112Z,96000.78
2023-03-14T14:49:31.302Z,96001.63
2023-03-14T14:51:40.454Z,95986.94
2023-03-14T14:53:44.958Z,95982.50
2023-03-14T14:55:52.322Z,95994.94
2023-03-14T14:57:57.527Z,95994.78
2023-03-14T15:00:05.343Z,95998.56
2023-03-14T15:02:33.105Z,95998.56
2023-03-14T15:04:36.930Z,96006.56
2023-03-14T15:06:40.791Z,96020.44
2023-03-14T15:08:44.883Z,96030.88
2023-03-14T15:10:48.711Z,96025.66
2023-03-14T15:12:52.666Z,96026.66
2023-03-14T15:14:58.232Z,96031.06
2023-03-14T15:17:02.077Z,96031.25
2023-03-14T15:19:24.109Z,96037.44
2023-03-14T15:21:30.089Z,96044.13
2023-03-14T15:23:33.969Z,96041.69
2023-03-14T15:25:54.104Z,96040.69
2023-03-14T15:27:59.470Z,96046.75
2023-03-14T15:30:03.471Z,96045.91
2023-03-14T15:32:08.206Z,96043.69
2023-03-14T15:34:13.537Z,96040.06
2023-03-14T15:36:23.781Z,96041.69
2023-03-14T15:38:27.583Z,96039.09
2023-03-14T15:40:31.525Z,96043.28
2023-03-14T15:42:35.513Z,96041.53
2023-03-14T15:44:39.900Z,96041.53
2023-03-14T15:46:43.741Z,96045.91
2023-03-14T15:48:47.924Z,96037.28
2023-03-14T15:50:53.136Z,96033.06
2023-03-14T15:52:57.627Z,96032.06
2023-03-14T15:55:01.452Z,96036.66
2023-03-14T15:57:07.462Z,96046.28
2023-03-14T15:59:11.573Z,96047.25
2023-03-14T16:01:16.709Z,96046.13
2023-03-14T16:03:20.721Z,96051.75
2023-03-14T16:05:24.629Z,96054.38
2023-03-14T16:07:31.437Z,96056.19
2023-03-14T16:09:36.284Z,96049.97
2023-03-14T16:11:40.168Z,96053.41
2023-03-14T16:13:44.031Z,96052.78
2023-03-14T16:15:57.775Z,96065.81
2023-03-14T16:18:06.501Z,96065.03
2023-03-14T16:20:20.364Z,96061.78
2023-03-14T16:22:24.222Z,96064.56
2023-03-14T16:24:30.012Z,96053.31
2023-03-14T16:26:35.091Z,96051.69
2023-03-14T16:28:39.311Z,96050.72
2023-03-14T16:30:43.486Z,96055.09
2023-03-14T16:32:48.792Z,96057.72
2023-03-14T16:34:52.625Z,96062.94
2023-03-14T16:36:56.447Z,96066.53
2023-03-14T16:39:00.344Z,96067.34
2023-03-14T16:41:06.683Z,96066.63
2023-03-14T16:43:15.923Z,96072.66
2023-03-14T16:45:20.305Z,96080.22
2023-03-14T16:47:24.719Z,96081.56
2023-03-14T16:49:28.523Z,96087.44
2023-03-14T16:51:32.457Z,96088.22
2023-03-14T16:53:36.282Z,96089.41
2023-03-14T16:55:42.598Z,96096.63
2023-03-14T16:57:47.757Z,96101.84
2023-03-14T16:59:51.764Z,96098.25
2023-03-14T17:01:56.052Z,96101.66
2023-03-14T17:04:00.167Z,96106.41
2023-03-14T17:06:04.604Z,96115.25
2023-03-14T17:08:08.409Z,96112.00
2023-03-14T17:10:12.624Z,96112.19
2023-03-14T17:12:16.448Z,96109.75
2023-03-14T17:14:21.631Z,96119.38
2023-03-14T17:16:25.471Z,96110.75
2023-03-14T17:18:30.097Z,96120.19
2023-03-14T17:20:33.915Z,96114.97
2023-03-14T17:22:37.725Z,96121.00
2023-03-14T17:24:41.514Z,96130.63
2023-03-14T17:26:45.308Z,96135.03
2023-03-14T17:28:49.141Z,96143.03
2023-03-14T17:31:03.412Z,96164.13
2023-03-14T17:33:07.309Z,96171.97
2023-03-14T17:35:11.163Z,96188.44
2023-03-14T17:37:15.108Z,96180.75
2023-03-14T17:39:18.890Z,96191.38
2023-03-14T17:41:22.824Z,96195.63
2023-03-14T17:43:26.680Z,96198.22
2023-03-14T17:45:30.558Z,96196.78
2023-03-14T17:47:35.790Z,96201.19
2023-03-14T17:49:40.427Z,96206.41
2023-03-14T17:51:44.231Z,96215.50
2023-03-14T17:53:48.040Z,96216.13
2023-03-14T17:55:52.024Z,96221.34
2023-03-14T17:57:55.813Z,96223.78
2023-03-14T17:59:59.842Z,96237.47
2023-03-14T18:02:03.808Z,96234.88
2023-03-14T18:04:09.382Z,96235.50
2023-03-14T18:06:14.318Z,96253.41
2023-03-14T18:08:18.124Z,96262.72
2023-03-14T18:10:22.401Z,96266.66
2023-03-14T18:12:26.273Z,96268.75
2023-03-14T18:14:30.101Z,96277.31
2023-03-14T18:16:34.135Z,96278.94
2023-03-14T18:18:38.021Z,96268.16
2023-03-14T18:20:43.283Z,96279.88
2023-03-14T18:22:47.156Z,96268.25
2023-03-14T18:24:54.424Z,96269.50
2023-03-14T18:26:58.318Z,96278.22
2023-03-14T18:29:02.790Z,96276.63
2023-03-14T18:31:11.001Z,96265.25
2023-03-14T18:33:15.033Z,96282.00
2023-03-14T18:35:18.874Z,96270.06
2023-03-14T18:37:24.096Z,96277.06
2023-03-14T18:39:28.091Z,96276.78
2023-03-14T18:41:31.955Z,96281.19
2023-03-14T18:43:35.862Z,96280.66
2023-03-14T18:45:39.728Z,96280.56
2023-03-14T18:47:43.651Z,96282.56
2023-03-14T18:49:47.824Z,96299.53
2023-03-14T18:51:51.860Z,96300.69
2023-03-14T18:54:08.389Z,96301.66
2023-03-14T18:56:14.266Z,96299.22
2023-03-14T18:58:23.649Z,96296.44
2023-03-14T19:00:28.132Z,96304.91
2023-03-14T19:02:32.175Z,96307.53
2023-03-14T19:04:36.139Z,96306.56
2023-03-14T19:06:40.037Z,96311.78
2023-03-14T19:08:46.318Z,96310.22
2023-03-14T19:10:52.367Z,96312.50
2023-03-14T19:12:56.196Z,96311.47
2023-03-14T19:15:00.191Z,96317.63
2023-03-14T19:17:04.189Z,96330.22
2023-03-14T19:19:08.095Z,96316.22
2023-03-14T19:21:13.956Z,96333.59
2023-03-14T19:23:17.922Z,96330.19
2023-03-14T19:25:22.211Z,96338.97
2023-03-14T19:27:27.406Z,96343.41
2023-03-14T19:29:31.852Z,96345.22
2023-03-14T19:31:35.916Z,96351.25
2023-03-14T19:33:39.987Z,96354.66
2023-03-14T19:35:44.077Z,96362.69
2023-03-14T19:37:47.952Z,96363.50
2023-03-14T19:39:51.950Z,96370.31
2023-03-14T19:41:58.020Z,96371.31
2023-03-14T19:44:03.502Z,96377.50
2023-03-14T19:46:07.481Z,96376.72
2023-03-14T19:48:12.211Z,96368.06
2023-03-14T19:50:16.342Z,96375.91
2023-03-14T19:52:20.217Z,96375.09
2023-03-14T19:54:24.211Z,96382.09
2023-03-14T19:56:28.080Z,96385.53
2023-03-14T19:58:31.981Z,96392.53
2023-03-14T20:00:37.459Z,96387.31
2023-03-14T20:02:42.070Z,96388.31
2023-03-14T20:04:46.642Z,96399.56
2023-03-14T20:06:53.267Z,96410.00
2023-03-14T20:08:57.341Z,96403.19
2023-03-14T20:11:04.011Z,96408.41
2023-03-14T20:13:19.210Z,96412.78
2023-03-14T20:15:25.115Z,96409.38
2023-03-14T20:17:31.171Z,96412.78
2023-03-14T20:19:35.301Z,96417.22
2023-03-14T20:21:39.270Z,96405.31
2023-03-14T20:23:44.221Z,96397.31
2023-03-14T20:25:55.126Z,96398.13
2023-03-14T20:27:59.152Z,96392.09
2023-03-14T20:30:07.155Z,96390.28
2023-03-14T20:32:11.558Z,96397.31
2023-03-14T20:34:16.940Z,96408.72
2023-03-14T20:36:20.943Z,96412.19
2023-03-14T20:38:26.395Z,96416.56
2023-03-14T20:40:30.675Z,96419.19
2023-03-14T20:42:35.142Z,96434.84
2023-03-14T20:44:39.452Z,96434.03
2023-03-14T20:46:43.871Z,96435.69
2023-03-14T20:48:47.979Z,96431.44
2023-03-14T20:50:53.432Z,96433.22
2023-03-14T20:52:57.560Z,96428.81
2023-03-14T20:55:01.585Z,96432.22
2023-03-14T20:57:05.621Z,96428.81
2023-03-14T20:59:09.570Z,96430.47
2023-03-14T21:01:13.952Z,96434.69
2023-03-14T21:03:19.062Z,96434.03
2023-03-14T21:05:23.329Z,96435.84
2023-03-14T21:07:30.429Z,96433.22
2023-03-14T21:09:34.530Z,96432.22
2023-03-14T21:11:41.091Z,96437.47
2023-03-14T21:13:45.120Z,96432.22
2023-03-14T21:15:49.118Z,96436.66
2023-03-14T21:17:54.187Z,96432.44
2023-03-14T21:19:58.539Z,96430.63
2023-03-14T21:22:03.860Z,96438.47
2023-03-14T21:24:10.177Z,96441.88
2023-03-14T21:26:14.124Z,96438.47
2023-03-14T21:28:18.070Z,96434.03
2023-03-14T21:30:22.393Z,96432.22
2023-03-14T21:32:26.474Z,96427.00
2023-03-14T21:34:30.643Z,96423.44
2023-03-14T21:36:34.629Z,96432.50
2023-03-14T21:38:38.786Z,96429.53
2023-03-14T21:40:49.858Z,96437.09
2023-03-14T21:42:54.335Z,96447.06
2023-03-14T21:44:58.252Z,96448.41
2023-03-14T21:47:04.317Z,96454.31
2023-03-14T21:49:08.575Z,96434.59
2023-03-14T21:51:12.420Z,96433.31
2023-03-14T21:53:16.698Z,96429.88
2023-03-14T21:55:25.373Z,96415.06
2023-03-14T21:57:33.423Z,96422.31
2023-03-14T21:59:53.509Z,96418.81
2023-03-14T22:02:02.756Z,96420.78
2023-03-14T22:04:07.617Z,96409.53
2023-03-14T22:06:16.104Z,96418.78
2023-03-14T22:08:22.752Z,96419.88
2023-03-14T22:10:27.112Z,96415.13
2023-03-14T22:12:32.451Z,96419.06
2023-03-14T22:14:39.391Z,96423.47
2023-03-14T22:16:43.258Z,96457.22
2023-03-14T22:18:47.081Z,96462.22
2023-03-14T22:20:50.909Z,96448.19
2023-03-14T22:22:54.753Z,96442.59
2023-03-14T22:24:58.589Z,96436.69
2023-03-14T22:27:02.460Z,96443.16
2023-03-14T22:29:07.747Z,96433.44
2023-03-14T22:31:11.842Z,96451.47
2023-03-14T22:33:15.945Z,96452.13
2023-03-14T22:35:19.937Z,96449.88
2023-03-14T22:37:25.409Z,96444.81
2023-03-14T22:39:29.345Z,96446.78
2023-03-14T22:41:33.531Z,96444.00
2023-03-14T22:43:37.429Z,96450.53
2023-03-14T22:45:42.764Z,96447.91
2023-03-14T22:47:46.963Z,96452.97
2023-03-14T22:49:50.990Z,96452.66
2023-03-14T22:51:55.159Z,96464.69
2023-03-14T22:53:59.179Z,96473.16
2023-03-14T22:56:04.712Z,96481.19
2023-03-14T22:58:08.759Z,96483.44
2023-03-14T23:00:16.388Z,96509.38
2023-03-14T23:02:21.948Z,96512.81
2023-03-14T23:04:26.017Z,96516.22
2023-03-14T23:06:30.047Z,96509.22
2023-03-14T23:08:34.140Z,96522.28
2023-03-14T23:10:38.434Z,96523.72
2023-03-14T23:12:45.209Z,96515.09
2023-03-14T23:14:49.323Z,96522.72
2023-03-14T23:16:55.838Z,96523.53
2023-03-14T23:19:01.910Z,96527.16
2023-03-14T23:21:10.901Z,96535.63
2023-03-14T23:23:16.479Z,96535.63
2023-03-14T23:25:20.774Z,96550.28
2023-03-14T23:27:25.325Z,96548.50
2023-03-14T23:29:29.883Z,96542.47
2023-03-14T23:31:34.193Z,96553.72
2023-03-14T23:33:38.928Z,96550.28
2023-03-14T23:35:44.460Z,96559.75
2023-03-14T23:37:50.046Z,96552.09
2023-03-14T23:39:54.214Z,96548.50
2023-03-14T23:41:58.312Z,96557.16
2023-03-14T23:44:02.759Z,96561.38
2023-03-14T23:46:06.899Z,96565.78
2023-03-14T23:48:11.091Z,96561.38
2023-03-14T23:50:15.283Z,96551.78
2023-03-14T23:52:20.952Z,96551.78
2023-03-14T23:54:25.097Z,96549.97
2023-03-14T23:56:29.492Z,96569.84
2023-03-14T23:58:35.912Z,96575.06
